Time;durP1;ratioP1;P1;durP2;ratioP2;P2;SDS_P1;SDS_P2;PMS_P1;PMS_P2;Temp;Humidity;BMP_temperature;BMP_pressure;BME280_temperature;BME280_humidity;BME280_pressure;Samples;Min_cycle;Max_cycle;Signal;HPM_P1;HPM_P2
2022/06/02 00:01:49;;;;;;;;;;;;;;;26.00;31.60;99098.88;4471954;32;34169;-86
2022/06/02 00:04:26;;;;;;;;;;;;;;;26.06;31.57;99098.56;4467837;32;34210;-86
2022/06/02 00:07:01;;;;;;;;;;;;;;;26.09;31.51;99095.75;4466455;32;34735;-87
2022/06/02 00:09:47;;;;;;;;;;;;;;;26.04;31.55;99105.75;4468365;32;33581;-82
2022/06/02 00:12:24;;;;;;;;;;;;;;;25.72;32.22;99097.62;4474773;32;34657;-85
2022/06/02 00:15:11;;;;;;;;;;;;;;;25.90;31.80;99098.47;4453794;32;34450;-87
2022/06/02 00:17:38;;;;;;;;;;;;;;;25.76;32.06;99089.47;4481014;31;34478;-82
2022/06/02 00:20:08;;;;;;;;;;;;;;;25.72;32.33;99092.31;4466855;32;33573;-83
2022/06/02 00:22:39;;;;;;;;;;;;;;;25.79;32.12;99092.84;4461318;32;33110;-87
2022/06/02 00:25:26;;;;;;;;;;;;;;;25.64;32.42;99086.50;4473877;32;34578;-83
2022/06/02 00:28:00;;;;;;;;;;;;;;;25.45;32.82;99094.50;4474290;32;35327;-82
2022/06/02 00:30:29;;;;;;;;;;;;;;;25.62;32.48;99093.69;4460473;32;33327;-83
2022/06/02 00:33:15;;;;;;;;;;;;;;;25.62;32.47;99083.06;4468226;32;35024;-82
2022/06/02 00:35:49;;;;;;;;;;;;;;;25.71;32.34;99085.25;4472250;32;35296;-81
2022/06/02 00:38:36;;;;;;;;;;;;;;;25.67;32.33;99077.53;4454451;32;35362;-86
2022/06/02 00:41:23;;;;;;;;;;;;;;;25.72;32.27;99078.13;4477277;32;32923;-86
2022/06/02 00:44:11;;;;;;;;;;;;;;;25.80;32.13;99080.44;4481893;32;33861;-82
2022/06/02 00:46:47;;;;;;;;;;;;;;;25.70;32.45;99080.03;4467086;32;33914;-81
2022/06/02 00:49:21;;;;;;;;;;;;;;;25.59;32.96;99075.25;4466272;32;34043;-83
2022/06/02 00:51:52;;;;;;;;;;;;;;;25.52;33.10;99079.16;4452317;32;33534;-87
2022/06/02 00:57:30;;;;;;;;;;;;;;;25.71;32.42;99079.09;4465064;32;34919;-83
2022/06/02 01:00:09;;;;;;;;;;;;;;;25.84;32.12;99074.06;4466058;32;34225;-86
2022/06/02 01:02:48;;;;;;;;;;;;;;;25.64;32.99;99070.56;4452157;32;34374;-82
2022/06/02 01:05:18;;;;;;;;;;;;;;;25.93;32.55;99078.87;4472190;32;33646;-86
2022/06/02 01:07:55;;;;;;;;;;;;;;;26.01;32.34;99074.03;4460240;32;34021;-82
2022/06/02 01:10:41;;;;;;;;;;;;;;;25.95;32.39;99072.56;4465114;32;33834;-87
2022/06/02 01:13:12;;;;;;;;;;;;;;;26.04;32.22;99065.91;4454096;32;33351;-82
2022/06/02 01:15:46;;;;;;;;;;;;;;;26.04;32.27;99065.91;4476661;32;35121;-83
2022/06/02 01:18:17;;;;;;;;;;;;;;;25.99;32.39;99065.31;4473075;32;33827;-82
2022/06/02 01:20:47;;;;;;;;;;;;;;;25.92;32.27;99071.87;4476121;31;34102;-86
2022/06/02 01:23:21;;;;;;;;;;;;;;;26.08;31.97;99062.16;4488403;31;34392;-83
2022/06/02 01:26:04;;;;;;;;;;;;;;;26.16;31.87;99053.78;4472036;32;35043;-82
2022/06/02 01:28:35;;;;;;;;;;;;;;;26.18;31.77;99059.88;4478934;32;34368;-82
2022/06/02 01:31:21;;;;;;;;;;;;;;;26.30;31.58;99050.41;4484140;32;34520;-81
2022/06/02 01:34:00;;;;;;;;;;;;;;;26.37;31.93;99046.47;4468901;32;33372;-86
2022/06/02 01:36:46;;;;;;;;;;;;;;;26.39;31.83;99040.09;4470715;32;33754;-86
2022/06/02 01:39:32;;;;;;;;;;;;;;;26.30;31.77;99042.44;4468437;32;35222;-84
2022/06/02 01:42:29;;;;;;;;;;;;;;;26.27;31.75;99046.09;4468241;32;34137;-82
2022/06/02 01:45:02;;;;;;;;;;;;;;;26.30;31.79;99051.25;4458514;32;33702;-85
2022/06/02 01:47:29;;;;;;;;;;;;;;;26.38;31.54;99045.53;4461046;32;35014;-82
2022/06/02 01:50:04;;;;;;;;;;;;;;;26.31;31.66;99047.66;4467916;32;34361;-83
2022/06/02 01:52:32;;;;;;;;;;;;;;;26.26;31.69;99048.84;4464783;32;35190;-86
2022/06/02 01:55:12;;;;;;;;;;;;;;;26.38;31.44;99045.53;4479908;32;33382;-82
2022/06/02 01:57:58;;;;;;;;;;;;;;;26.62;31.09;99044.22;4476351;32;33595;-85
2022/06/02 02:00:26;;;;;;;;;;;;;;;26.76;31.06;99026.66;4470308;32;34423;-86
2022/06/02 02:03:01;;;;;;;;;;;;;;;26.60;31.72;99037.28;4465676;32;34508;-87
2022/06/02 02:05:28;;;;;;;;;;;;;;;26.63;31.81;99040.63;4461670;32;33861;-83
2022/06/02 02:08:04;;;;;;;;;;;;;;;26.44;32.36;99038.09;4467872;32;34121;-84
2022/06/02 02:10:31;;;;;;;;;;;;;;;26.62;32.33;99038.03;4463614;32;34434;-83
2022/06/02 02:13:14;;;;;;;;;;;;;;;26.81;32.14;99037.88;4469614;32;34300;-83
2022/06/02 02:15:50;;;;;;;;;;;;;;;26.67;32.50;99036.84;4474518;32;33815;-83
2022/06/02 02:18:19;;;;;;;;;;;;;;;26.73;32.43;99034.78;4482904;32;34396;-84
2022/06/02 02:20:52;;;;;;;;;;;;;;;26.55;32.79;99041.97;4468672;32;34215;-87
2022/06/02 02:23:22;;;;;;;;;;;;;;;26.53;32.92;99054.50;4454578;32;34006;-85
2022/06/02 02:25:54;;;;;;;;;;;;;;;26.54;32.99;99062.38;4471947;31;33636;-87
2022/06/02 02:28:31;;;;;;;;;;;;;;;26.34;33.51;99067.91;4472610;32;33851;-82
2022/06/02 02:31:02;;;;;;;;;;;;;;;26.76;32.93;99088.66;4454647;32;34259;-81
2022/06/02 02:33:46;;;;;;;;;;;;;;;26.59;33.64;99096.69;4469460;32;34482;-82
2022/06/02 02:36:32;;;;;;;;;;;;;;;26.77;33.58;99102.81;4462363;32;33165;-84
2022/06/02 02:39:12;;;;;;;;;;;;;;;25.90;34.56;99113.56;4476194;31;33987;-84
2022/06/02 02:41:45;;;;;;;;;;;;;;;23.74;39.15;99126.97;4467740;32;34503;-82
2022/06/02 02:44:13;;;;;;;;;;;;;;;24.46;38.04;99129.19;4474076;32;35273;-86
2022/06/02 02:46:52;;;;;;;;;;;;;;;24.14;39.21;99135.03;4482358;32;33551;-85
2022/06/02 02:49:28;;;;;;;;;;;;;;;24.11;39.21;99145.75;4480402;32;33735;-83
2022/06/02 02:51:55;;;;;;;;;;;;;;;24.19;39.31;99176.25;4463236;32;35300;-82
2022/06/02 02:54:42;;;;;;;;;;;;;;;24.42;38.95;99195.66;4475138;32;34607;-87
2022/06/02 02:57:18;;;;;;;;;;;;;;;23.56;40.49;99185.91;4477276;32;34130;-83
2022/06/02 02:59:48;;;;;;;;;;;;;;;23.63;40.95;99176.78;4466401;32;34962;-83
2022/06/02 03:02:34;;;;;;;;;;;;;;;24.18;40.68;99198.41;4454241;32;34434;-83
2022/06/02 03:05:14;;;;;;;;;;;;;;;24.44;40.18;99199.09;4478779;32;34527;-83
2022/06/02 03:07:41;;;;;;;;;;;;;;;23.77;42.74;99198.31;4467159;32;34430;-83
2022/06/02 03:10:30;;;;;;;;;;;;;;;24.09;43.00;99213.78;4481914;32;34610;-88
2022/06/02 03:12:58;;;;;;;;;;;;;;;22.77;45.97;99219.75;4467628;32;34250;-83
2022/06/02 03:15:44;;;;;;;;;;;;;;;23.10;45.07;99206.22;4481258;32;34499;-83
2022/06/02 03:18:14;;;;;;;;;;;;;;;23.36;45.09;99213.16;4475629;32;33521;-84
2022/06/02 03:20:42;;;;;;;;;;;;;;;22.88;46.74;99221.09;4482963;32;34501;-84
2022/06/02 03:23:27;;;;;;;;;;;;;;;22.95;46.87;99220.00;4469121;32;34166;-84
2022/06/02 03:26:17;;;;;;;;;;;;;;;22.38;48.49;99221.13;4467355;32;34945;-83
2022/06/02 03:28:47;;;;;;;;;;;;;;;21.76;50.24;99241.59;4461240;31;33694;-83
2022/06/02 03:31:31;;;;;;;;;;;;;;;22.37;48.74;99232.63;4496894;31;33528;-83
2022/06/02 03:34:01;;;;;;;;;;;;;;;22.01;50.13;99238.16;4463994;32;34234;-83
2022/06/02 03:36:48;;;;;;;;;;;;;;;22.80;48.17;99224.88;4455281;32;34178;-83
2022/06/02 03:39:22;;;;;;;;;;;;;;;22.54;49.08;99217.91;4469405;32;33555;-83
2022/06/02 03:42:01;;;;;;;;;;;;;;;21.90;51.33;99219.22;4482929;32;35200;-83
2022/06/02 03:44:42;;;;;;;;;;;;;;;22.06;50.75;99205.44;4475570;32;35083;-82
2022/06/02 03:47:13;;;;;;;;;;;;;;;22.64;49.13;99185.87;4459699;32;33892;-83
2022/06/02 03:49:47;;;;;;;;;;;;;;;22.61;48.83;99184.19;4480704;32;33367;-83
2022/06/02 03:52:34;;;;;;;;;;;;;;;21.78;50.95;99168.56;4469613;32;34623;-85
2022/06/02 03:55:19;;;;;;;;;;;;;;;22.09;50.35;99157.81;4471488;32;33761;-82
2022/06/02 03:58:00;;;;;;;;;;;;;;;21.08;53.80;99157.53;4474035;32;33929;-82
2022/06/02 04:00:51;;;;;;;;;;;;;;;23.00;49.12;99146.69;4467948;32;33797;-84
2022/06/02 04:03:37;;;;;;;;;;;;;;;23.23;48.96;99153.72;4467218;32;34937;-85
2022/06/02 04:06:22;;;;;;;;;;;;;;;24.04;47.15;99147.78;4474404;32;35200;-83
2022/06/02 04:09:01;;;;;;;;;;;;;;;24.43;46.17;99153.16;4474847;31;35338;-82
2022/06/02 04:14:42;;;;;;;;;;;;;;;23.76;47.45;99172.78;4473537;32;34350;-81
2022/06/02 04:17:26;;;;;;;;;;;;;;;24.08;46.07;99167.91;4460435;32;35260;-82
2022/06/02 04:23:00;;;;;;;;;;;;;;;24.17;46.00;99180.78;4473429;32;33460;-82
2022/06/02 04:25:37;;;;;;;;;;;;;;;24.54;45.21;99181.00;4458239;32;34878;-80
2022/06/02 04:28:04;;;;;;;;;;;;;;;24.56;44.95;99181.81;4481034;32;32850;-82
2022/06/02 04:30:44;;;;;;;;;;;;;;;24.76;44.66;99176.47;4475005;32;35182;-81
2022/06/02 04:33:41;;;;;;;;;;;;;;;24.98;44.40;99171.06;4495141;31;33551;-90
2022/06/02 04:36:11;;;;;;;;;;;;;;;25.26;44.24;99172.44;4456781;32;34442;-81
2022/06/02 04:38:49;;;;;;;;;;;;;;;25.13;44.63;99166.84;4467193;32;34470;-81
2022/06/02 04:41:20;;;;;;;;;;;;;;;25.11;44.58;99179.31;4452835;32;34444;-79
2022/06/02 04:43:53;;;;;;;;;;;;;;;25.48;43.95;99176.66;4466858;32;34200;-86
2022/06/02 04:46:34;;;;;;;;;;;;;;;25.41;44.28;99187.63;4474934;31;34128;-82
2022/06/02 04:49:04;;;;;;;;;;;;;;;25.23;44.69;99184.94;4482268;32;33896;-82
2022/06/02 04:51:58;;;;;;;;;;;;;;;24.61;46.60;99191.25;4469971;32;35224;-81
2022/06/02 04:54:36;;;;;;;;;;;;;;;24.77;46.26;99186.13;4454413;32;33542;-82
2022/06/02 04:57:14;;;;;;;;;;;;;;;24.99;45.47;99180.72;4471502;32;33832;-81
2022/06/02 04:59:53;;;;;;;;;;;;;;;25.41;44.54;99177.00;4455720;32;35148;-79
2022/06/02 05:02:39;;;;;;;;;;;;;;;25.21;45.30;99173.50;4477189;32;35238;-82
2022/06/02 05:05:12;;;;;;;;;;;;;;;25.68;43.89;99174.81;4469700;31;33195;-80
2022/06/02 05:07:59;;;;;;;;;;;;;;;25.80;44.09;99181.34;4461243;32;34242;-81
2022/06/02 05:10:52;;;;;;;;;;;;;;;25.58;44.78;99190.34;4484018;31;34308;-80
2022/06/02 05:13:22;;;;;;;;;;;;;;;25.84;44.32;99202.41;4465450;32;34285;-81
2022/06/02 05:15:59;;;;;;;;;;;;;;;25.91;44.44;99198.50;4483811;32;33217;-80
2022/06/02 05:18:26;;;;;;;;;;;;;;;26.03;44.49;99196.19;4470120;32;34412;-81
2022/06/02 05:20:59;;;;;;;;;;;;;;;26.32;43.51;99194.69;4484256;32;34295;-82
2022/06/02 05:23:36;;;;;;;;;;;;;;;26.60;42.79;99203.00;4478919;32;35252;-82
2022/06/02 05:26:21;;;;;;;;;;;;;;;26.66;42.76;99201.78;4484240;32;33367;-81
2022/06/02 05:28:53;;;;;;;;;;;;;;;26.24;43.85;99204.84;4483847;32;34067;-82
2022/06/02 05:31:21;;;;;;;;;;;;;;;25.51;43.65;99214.63;4469943;32;35126;-82
2022/06/02 05:33:52;;;;;;;;;;;;;;;25.46;44.28;99213.03;4484492;32;34376;-81
2022/06/02 05:36:23;;;;;;;;;;;;;;;25.61;44.00;99216.75;4469257;32;33533;-82
2022/06/02 05:39:09;;;;;;;;;;;;;;;25.94;43.74;99210.75;4482600;32;33851;-82
2022/06/02 05:41:55;;;;;;;;;;;;;;;25.03;45.18;99224.72;4483671;32;34584;-82
2022/06/02 05:44:49;;;;;;;;;;;;;;;24.44;47.18;99234.41;4484067;32;34611;-82
2022/06/02 05:47:16;;;;;;;;;;;;;;;24.04;48.07;99240.47;4481165;32;34477;-87
2022/06/02 05:49:48;;;;;;;;;;;;;;;23.86;48.56;99236.78;4484328;32;34384;-87
2022/06/02 05:52:23;;;;;;;;;;;;;;;23.98;49.19;99241.59;4470132;32;34028;-81
2022/06/02 05:55:11;;;;;;;;;;;;;;;24.44;48.20;99242.38;4470110;32;35341;-82
2022/06/02 05:57:46;;;;;;;;;;;;;;;24.99;47.88;99233.75;4469982;32;33717;-83
2022/06/02 06:00:16;;;;;;;;;;;;;;;25.84;46.05;99234.28;4470035;32;34396;-87
2022/06/02 06:03:04;;;;;;;;;;;;;;;26.34;43.85;99238.00;4479748;32;34846;-81
2022/06/02 06:05:40;;;;;;;;;;;;;;;27.55;41.73;99245.78;4468360;32;34328;-85
2022/06/02 06:08:17;;;;;;;;;;;;;;;26.82;42.03;99247.94;4468540;32;33155;-81
2022/06/02 06:10:46;;;;;;;;;;;;;;;27.36;43.36;99245.94;4469529;32;34645;-81
2022/06/02 06:13:17;;;;;;;;;;;;;;;27.80;41.44;99249.75;4456380;32;34873;-84
2022/06/02 06:15:53;;;;;;;;;;;;;;;27.40;41.39;99249.28;4479939;32;34852;-81
2022/06/02 06:18:25;;;;;;;;;;;;;;;26.74;41.67;99242.12;4495159;31;33675;-80
2022/06/02 06:20:53;;;;;;;;;;;;;;;27.01;42.36;99244.28;4458340;32;35009;-81
2022/06/02 06:23:24;;;;;;;;;;;;;;;28.22;40.74;99243.75;4483764;32;34169;-81
2022/06/02 06:26:04;;;;;;;;;;;;;;;28.00;38.30;99236.16;4467814;32;34270;-81
2022/06/02 06:28:32;;;;;;;;;;;;;;;28.19;38.66;99237.78;4470762;32;33790;-81
2022/06/02 06:31:15;;;;;;;;;;;;;;;26.95;39.81;99252.59;4467886;32;35225;-81
2022/06/02 06:33:49;;;;;;;;;;;;;;;26.96;42.18;99252.50;4468081;32;34533;-80
2022/06/02 06:36:32;;;;;;;;;;;;;;;27.51;41.42;99262.88;4464284;32;34488;-80
2022/06/02 06:39:02;;;;;;;;;;;;;;;27.60;41.00;99259.69;4468407;32;33573;-80
2022/06/02 06:41:52;;;;;;;;;;;;;;;27.98;39.78;99270.03;4467860;32;35089;-81
2022/06/02 06:44:31;;;;;;;;;;;;;;;28.98;39.01;99259.72;4453945;32;34078;-81
2022/06/02 06:47:09;;;;;;;;;;;;;;;29.08;38.84;99274.19;4468471;32;33936;-83
2022/06/02 06:49:40;;;;;;;;;;;;;;;28.40;38.22;99275.66;4453738;32;34150;-81
2022/06/02 06:52:20;;;;;;;;;;;;;;;28.01;40.13;99285.84;4467811;32;34239;-81
2022/06/02 06:55:02;;;;;;;;;;;;;;;28.14;41.72;99280.66;4467955;32;34529;-88
2022/06/02 06:57:42;;;;;;;;;;;;;;;27.22;41.14;99279.56;4457124;32;33851;-79
2022/06/02 07:00:21;;;;;;;;;;;;;;;28.40;39.85;99276.53;4480730;32;33442;-80
2022/06/02 07:02:58;;;;;;;;;;;;;;;27.92;41.37;99285.50;4462381;32;34430;-84
2022/06/02 07:05:31;;;;;;;;;;;;;;;27.98;41.24;99286.00;4491964;31;34504;-86
2022/06/02 07:08:05;;;;;;;;;;;;;;;27.12;41.11;99284.53;4480109;31;34534;-81
2022/06/02 07:10:35;;;;;;;;;;;;;;;24.83;43.93;99291.94;4483568;32;34456;-82
2022/06/02 07:13:11;;;;;;;;;;;;;;;25.53;42.59;99287.91;4469130;32;35006;-86
2022/06/02 07:15:45;;;;;;;;;;;;;;;27.02;39.42;99284.13;4483438;32;35267;-80
2022/06/02 07:18:20;;;;;;;;;;;;;;;27.40;38.93;99284.78;4483109;32;34529;-81
2022/06/02 07:21:02;;;;;;;;;;;;;;;27.12;37.08;99285.41;4469343;32;33367;-81
2022/06/02 07:23:32;;;;;;;;;;;;;;;27.34;37.90;99285.09;4483000;32;33998;-81
2022/06/02 07:26:19;;;;;;;;;;;;;;;28.53;35.75;99284.69;4483390;32;34442;-81
2022/06/02 07:28:56;;;;;;;;;;;;;;;29.04;35.99;99280.69;4469052;32;34248;-81
2022/06/02 07:31:26;;;;;;;;;;;;;;;27.16;36.24;99284.31;4483367;32;33593;-82
2022/06/02 07:33:57;;;;;;;;;;;;;;;27.60;35.54;99280.16;4483537;32;34728;-81
2022/06/02 07:36:38;;;;;;;;;;;;;;;27.97;35.92;99284.31;4483343;32;34102;-81
2022/06/02 07:39:23;;;;;;;;;;;;;;;28.09;36.99;99288.94;4469078;32;35198;-82
2022/06/02 07:42:03;;;;;;;;;;;;;;;28.61;35.59;99275.25;4483214;32;33458;-82
2022/06/02 07:44:49;;;;;;;;;;;;;;;28.72;33.89;99279.94;4483323;32;34436;-82
2022/06/02 07:47:26;;;;;;;;;;;;;;;28.95;32.39;99278.56;4484097;32;35212;-81
2022/06/02 07:50:06;;;;;;;;;;;;;;;29.44;32.97;99283.56;4482968;32;34193;-87
2022/06/02 07:52:35;;;;;;;;;;;;;;;27.88;33.44;99293.69;4469008;32;33444;-83
2022/06/02 07:55:05;;;;;;;;;;;;;;;27.66;36.74;99295.78;4469155;32;34279;-82
2022/06/02 07:57:51;;;;;;;;;;;;;;;27.14;38.65;99291.50;4484095;32;34317;-81
2022/06/02 08:00:22;;;;;;;;;;;;;;;26.08;42.13;99290.63;4468803;32;34570;-84
2022/06/02 08:02:52;;;;;;;;;;;;;;;26.73;40.36;99290.97;4482682;32;33719;-81
2022/06/02 08:05:38;;;;;;;;;;;;;;;27.07;40.55;99298.03;4483107;32;34374;-84
2022/06/02 08:08:13;;;;;;;;;;;;;;;27.17;41.04;99296.66;4482786;32;34406;-82
2022/06/02 08:10:59;;;;;;;;;;;;;;;26.81;41.47;99299.41;4469031;32;34805;-81
2022/06/02 08:13:29;;;;;;;;;;;;;;;26.41;42.77;99308.53;4483153;32;33241;-82
2022/06/02 08:16:08;;;;;;;;;;;;;;;27.07;41.87;99306.03;4482887;32;33875;-86
2022/06/02 08:18:50;;;;;;;;;;;;;;;27.33;41.15;99309.16;4482819;32;35391;-82
2022/06/02 08:21:36;;;;;;;;;;;;;;;27.97;37.88;99305.63;4481484;32;34394;-85
2022/06/02 08:24:22;;;;;;;;;;;;;;;26.33;39.07;99305.38;4482784;32;34452;-86
2022/06/02 08:26:50;;;;;;;;;;;;;;;27.02;39.57;99297.44;4482564;32;35230;-81
2022/06/02 08:29:24;;;;;;;;;;;;;;;27.13;39.23;99302.22;4482702;32;35142;-87
2022/06/02 08:32:15;;;;;;;;;;;;;;;27.06;40.43;99309.63;4482768;32;34866;-81
2022/06/02 08:34:45;;;;;;;;;;;;;;;26.85;40.24;99302.75;4472953;32;33549;-81
2022/06/02 08:37:31;;;;;;;;;;;;;;;27.31;39.71;99311.88;4482380;32;34888;-82
2022/06/02 08:40:28;;;;;;;;;;;;;;;27.25;40.18;99312.22;4482643;32;33949;-82
2022/06/02 08:43:04;;;;;;;;;;;;;;;27.01;40.97;99305.47;4468748;32;35180;-82
2022/06/02 08:45:50;;;;;;;;;;;;;;;27.25;39.47;99306.91;4482821;32;33224;-82
2022/06/02 08:48:30;;;;;;;;;;;;;;;27.96;39.15;99305.69;4482331;32;35001;-86
2022/06/02 08:51:12;;;;;;;;;;;;;;;27.61;38.65;99309.34;4482043;32;34210;-82
2022/06/02 08:53:45;;;;;;;;;;;;;;;28.31;37.12;99309.88;4482383;32;33824;-81
2022/06/02 08:56:19;;;;;;;;;;;;;;;27.34;39.63;99317.03;4482228;32;33453;-83
2022/06/02 08:59:01;;;;;;;;;;;;;;;27.70;37.86;99302.66;4482299;32;34480;-87
2022/06/02 09:01:29;;;;;;;;;;;;;;;27.14;40.45;99320.75;4482226;32;35442;-84
2022/06/02 09:04:16;;;;;;;;;;;;;;;27.52;39.70;99309.00;4481884;32;35151;-81
2022/06/02 09:06:56;;;;;;;;;;;;;;;28.04;37.76;99324.81;4482071;32;33648;-81
2022/06/02 09:09:38;;;;;;;;;;;;;;;27.52;38.04;99314.34;4482626;32;33908;-81
2022/06/02 09:12:15;;;;;;;;;;;;;;;27.73;38.84;99323.81;4481976;32;35226;-83
2022/06/02 09:14:42;;;;;;;;;;;;;;;27.47;38.75;99330.56;4482507;32;34246;-82
2022/06/02 09:17:18;;;;;;;;;;;;;;;28.36;37.36;99331.81;4482285;32;32943;-81
2022/06/02 09:20:06;;;;;;;;;;;;;;;28.59;36.51;99330.50;4481954;32;34929;-81
2022/06/02 09:22:50;;;;;;;;;;;;;;;29.09;35.88;99325.78;4467967;32;34094;-84
2022/06/02 09:25:22;;;;;;;;;;;;;;;27.99;37.59;99333.03;4467982;32;34341;-81
2022/06/02 09:28:08;;;;;;;;;;;;;;;28.28;37.47;99331.37;4467697;32;32890;-86
2022/06/02 09:30:35;;;;;;;;;;;;;;;29.41;35.56;99329.16;4482099;32;34031;-81
2022/06/02 09:36:00;;;;;;;;;;;;;;;28.26;38.16;99338.63;4484155;32;34589;-85
2022/06/02 09:38:54;;;;;;;;;;;;;;;28.39;37.93;99346.81;4469861;32;33192;-82
2022/06/02 09:41:36;;;;;;;;;;;;;;;28.86;36.86;99341.34;4481014;32;34928;-83
2022/06/02 09:44:08;;;;;;;;;;;;;;;28.91;37.06;99346.41;4484166;32;34107;-82
2022/06/02 09:46:45;;;;;;;;;;;;;;;29.05;35.74;99330.44;4469844;32;35173;-82
2022/06/02 09:49:26;;;;;;;;;;;;;;;29.45;34.16;99338.69;4483910;32;33700;-82
2022/06/02 09:52:02;;;;;;;;;;;;;;;28.59;37.87;99335.81;4484170;32;34262;-82
2022/06/02 09:54:49;;;;;;;;;;;;;;;28.13;37.48;99338.44;4484038;32;33688;-84
2022/06/02 10:00:15;;;;;;;;;;;;;;;28.45;35.40;99317.13;4484068;32;33728;-87
2022/06/02 10:02:51;;;;;;;;;;;;;;;28.89;36.32;99321.63;4469379;32;34011;-82
2022/06/02 10:05:25;;;;;;;;;;;;;;;29.03;35.66;99323.50;4469821;32;34911;-86
2022/06/02 10:07:53;;;;;;;;;;;;;;;28.62;36.22;99318.78;4469847;32;34746;-81
2022/06/02 10:10:46;;;;;;;;;;;;;;;28.86;36.52;99321.78;4484224;32;34335;-87
2022/06/02 10:13:32;;;;;;;;;;;;;;;28.36;37.62;99312.28;4454122;32;33791;-83
2022/06/02 10:16:22;;;;;;;;;;;;;;;28.49;38.50;99317.78;4483987;32;34304;-81
2022/06/02 10:19:03;;;;;;;;;;;;;;;29.41;36.97;99318.47;4483621;32;34297;-81
2022/06/02 10:21:33;;;;;;;;;;;;;;;29.96;34.06;99317.66;4469237;32;33916;-82
2022/06/02 10:24:10;;;;;;;;;;;;;;;29.45;35.71;99314.66;4483626;32;33967;-82
2022/06/02 10:26:44;;;;;;;;;;;;;;;29.73;35.63;99318.28;4469509;32;34426;-82
2022/06/02 10:29:17;;;;;;;;;;;;;;;28.29;37.99;99327.75;4469883;32;34490;-82
2022/06/02 10:32:05;;;;;;;;;;;;;;;28.60;38.86;99326.00;4483622;32;35210;-81
2022/06/02 10:34:35;;;;;;;;;;;;;;;29.08;36.79;99311.56;4482926;32;34201;-82
2022/06/02 10:37:09;;;;;;;;;;;;;;;29.33;36.12;99320.75;4483688;32;34553;-83
2022/06/02 10:39:55;;;;;;;;;;;;;;;29.09;37.57;99315.97;4483803;32;33630;-81
2022/06/02 10:42:41;;;;;;;;;;;;;;;29.07;35.36;99323.22;4483450;32;34281;-82
2022/06/02 10:45:16;;;;;;;;;;;;;;;29.22;36.55;99320.56;4483592;32;34975;-82
2022/06/02 10:48:02;;;;;;;;;;;;;;;30.08;35.46;99323.16;4483327;32;34309;-83
2022/06/02 10:50:33;;;;;;;;;;;;;;;29.36;36.64;99336.59;4483737;32;35172;-81
2022/06/02 10:53:18;;;;;;;;;;;;;;;30.30;34.46;99329.69;4483497;32;34369;-82
2022/06/02 10:55:46;;;;;;;;;;;;;;;29.29;37.03;99335.25;4483669;32;34287;-81
2022/06/02 10:58:29;;;;;;;;;;;;;;;28.84;37.50;99334.38;4483516;32;34370;-87
2022/06/02 11:00:56;;;;;;;;;;;;;;;28.70;38.03;99326.34;4483308;32;35257;-82
2022/06/02 11:03:41;;;;;;;;;;;;;;;28.80;38.01;99333.72;4483269;32;33566;-82
2022/06/02 11:06:14;;;;;;;;;;;;;;;29.62;35.09;99331.44;4483415;32;35019;-84
2022/06/02 11:08:57;;;;;;;;;;;;;;;29.54;35.57;99330.09;4483470;32;34232;-83
2022/06/02 11:11:36;;;;;;;;;;;;;;;29.45;37.86;99322.66;4483827;32;35149;-83
2022/06/02 11:14:21;;;;;;;;;;;;;;;29.28;37.23;99313.03;4483551;32;33479;-82
2022/06/02 11:17:08;;;;;;;;;;;;;;;29.39;37.44;99319.50;4469295;32;35128;-88
2022/06/02 11:19:51;;;;;;;;;;;;;;;29.31;35.68;99312.81;4483368;32;35166;-81
2022/06/02 11:22:22;;;;;;;;;;;;;;;29.84;36.69;99315.78;4469189;32;35250;-90
2022/06/02 11:25:25;;;;;;;;;;;;;;;29.47;36.62;99318.09;4483344;32;33070;-87
2022/06/02 11:27:53;;;;;;;;;;;;;;;28.82;36.65;99320.25;4483367;32;34020;-81
2022/06/02 11:30:25;;;;;;;;;;;;;;;29.82;35.21;99328.41;4483309;32;35221;-82
2022/06/02 11:33:13;;;;;;;;;;;;;;;30.01;34.78;99325.41;4469486;32;34539;-83
2022/06/02 11:35:55;;;;;;;;;;;;;;;29.93;36.68;99331.22;4469739;32;34277;-87
2022/06/02 11:38:28;;;;;;;;;;;;;;;30.15;35.21;99330.69;4469378;32;34758;-81
2022/06/02 11:41:07;;;;;;;;;;;;;;;30.11;34.03;99326.50;4483298;32;34348;-82
2022/06/02 11:43:37;;;;;;;;;;;;;;;30.50;34.79;99328.41;4468730;32;34924;-83
2022/06/02 11:46:14;;;;;;;;;;;;;;;30.09;34.29;99336.44;4483329;32;34058;-82
2022/06/02 11:48:48;;;;;;;;;;;;;;;30.21;35.12;99334.81;4483421;32;34381;-82
2022/06/02 11:51:34;;;;;;;;;;;;;;;30.17;33.07;99331.47;4483028;32;35392;-82
2022/06/02 11:54:13;;;;;;;;;;;;;;;29.16;34.58;99331.59;4482830;32;34387;-83
2022/06/02 11:56:44;;;;;;;;;;;;;;;30.65;32.04;99334.53;4483099;32;33560;-82
2022/06/02 11:59:21;;;;;;;;;;;;;;;30.87;31.86;99341.97;4468914;32;34237;-81
2022/06/02 12:02:02;;;;;;;;;;;;;;;30.66;32.79;99332.72;4483050;32;34907;-87
2022/06/02 12:04:31;;;;;;;;;;;;;;;30.69;32.10;99332.53;4468915;32;35265;-82
2022/06/02 12:07:05;;;;;;;;;;;;;;;30.59;32.13;99328.75;4468985;32;34496;-89
2022/06/02 12:09:48;;;;;;;;;;;;;;;30.18;30.33;99335.88;4469013;32;35029;-81
2022/06/02 12:12:34;;;;;;;;;;;;;;;30.15;30.33;99328.00;4482976;32;34383;-82
2022/06/02 12:15:19;;;;;;;;;;;;;;;28.88;33.23;99330.59;4482985;32;34543;-83
2022/06/02 12:18:05;;;;;;;;;;;;;;;29.56;32.10;99330.00;4482934;32;33202;-83
2022/06/02 12:20:38;;;;;;;;;;;;;;;29.78;31.52;99337.56;4482915;32;34343;-82
2022/06/02 12:23:13;;;;;;;;;;;;;;;30.73;30.69;99331.34;4465284;31;34262;-85
2022/06/02 12:25:40;;;;;;;;;;;;;;;31.37;29.06;99335.00;4482219;31;34814;-87
2022/06/02 12:28:14;;;;;;;;;;;;;;;30.54;30.84;99340.63;4481765;32;33065;-81
2022/06/02 12:31:00;;;;;;;;;;;;;;;29.73;30.43;99340.50;4492920;31;34847;-82
2022/06/02 12:33:46;;;;;;;;;;;;;;;29.74;30.82;99341.38;4497765;31;34175;-80
2022/06/02 12:36:32;;;;;;;;;;;;;;;30.17;30.41;99334.16;4497616;31;34319;-82
2022/06/02 12:39:03;;;;;;;;;;;;;;;30.82;29.82;99344.13;4497841;31;34341;-82
2022/06/02 12:41:45;;;;;;;;;;;;;;;29.93;28.60;99341.94;4495480;31;34928;-82
2022/06/02 12:44:24;;;;;;;;;;;;;;;30.23;29.73;99343.56;4467745;32;34427;-86
2022/06/02 12:47:00;;;;;;;;;;;;;;;28.94;30.31;99346.22;4467631;32;33934;-84
2022/06/02 12:49:39;;;;;;;;;;;;;;;30.79;27.06;99341.66;4481927;32;33263;-86
2022/06/02 12:52:16;;;;;;;;;;;;;;;30.50;27.91;99336.44;4481588;32;34009;-82
2022/06/02 12:54:43;;;;;;;;;;;;;;;30.92;26.91;99345.22;4481507;32;33888;-82
2022/06/02 12:57:20;;;;;;;;;;;;;;;30.39;28.71;99354.16;4453985;32;865356;-81
2022/06/02 13:00:07;;;;;;;;;;;;;;;29.91;28.35;99351.84;4481699;32;33393;-81
2022/06/02 13:02:46;;;;;;;;;;;;;;;31.12;27.82;99346.53;4467046;32;33676;-81
2022/06/02 13:05:28;;;;;;;;;;;;;;;30.94;29.11;99356.66;4467120;32;35011;-82
2022/06/02 13:07:56;;;;;;;;;;;;;;;31.04;28.99;99350.69;4483453;32;35047;-81
2022/06/02 13:10:33;;;;;;;;;;;;;;;32.00;27.80;99351.09;4482656;32;34245;-82
2022/06/02 13:13:01;;;;;;;;;;;;;;;30.71;28.74;99357.34;4483460;32;33958;-81
2022/06/02 13:15:34;;;;;;;;;;;;;;;30.37;29.32;99343.53;4484121;32;34074;-81
2022/06/02 13:18:20;;;;;;;;;;;;;;;30.81;28.66;99349.59;4483447;32;35466;-81
2022/06/02 13:21:06;;;;;;;;;;;;;;;30.06;28.53;99350.84;4483632;32;34359;-81
2022/06/02 13:23:37;;;;;;;;;;;;;;;30.59;29.79;99344.78;4483277;32;33292;-84
2022/06/02 13:26:04;;;;;;;;;;;;;;;29.29;30.54;99340.59;4483429;32;35257;-81
2022/06/02 13:28:33;;;;;;;;;;;;;;;30.68;28.00;99341.50;4480375;32;34490;-81
2022/06/02 13:31:13;;;;;;;;;;;;;;;30.08;29.09;99331.19;4470945;32;34463;-79
2022/06/02 13:33:49;;;;;;;;;;;;;;;30.76;27.94;99325.78;4477298;32;35222;-80
2022/06/02 13:36:32;;;;;;;;;;;;;;;31.33;26.82;99325.47;4473335;32;35419;-80
2022/06/02 13:39:02;;;;;;;;;;;;;;;31.07;25.79;99326.41;4483921;32;34481;-80
2022/06/02 13:41:51;;;;;;;;;;;;;;;29.84;28.90;99334.47;4483608;32;33771;-81
2022/06/02 13:44:37;;;;;;;;;;;;;;;30.42;27.88;99337.87;4469133;32;34976;-81
2022/06/02 13:47:26;;;;;;;;;;;;;;;29.86;29.14;99327.25;4476379;31;34143;-80
2022/06/02 13:50:23;;;;;;;;;;;;;;;30.60;28.82;99331.31;4477518;31;33856;-79
2022/06/02 13:52:59;;;;;;;;;;;;;;;30.62;27.03;99333.88;4482433;31;33661;-80
2022/06/02 13:58:34;;;;;;;;;;;;;;;29.94;27.89;99330.28;4495253;31;34186;-81
2022/06/02 14:01:10;;;;;;;;;;;;;;;30.20;28.27;99327.75;4453016;32;34747;-81